A- A+ FrançaisEnglishEspañol中国

le plus proche LFBT Tarbes-Lourdes-PyrénéesLFJR Angers MarceLFNA Gap-Tallard LFPT Pontoise-Cormeilles-En-Vexin

manche à air

La météo aéronautique pour les pilotes, la préparation du vol avec les METAR (METeorological Aerodrome Report, message d'observation des conditions météorologiques pour l'aviation) et Les TAF (Terminal Aerodrome Forecast : message de prévision à court terme des conditions météorologiques pour l'aviation). Et les autres ressources comme les VAC (Visual Approch Chart) et les NOTAM (Notice To Airman) pour préprer les vols.

Aéroport Cambridge (Royaume-Uni) / OACI EGSC/ IATA CBG

L'altitude de l'aéroport Cambridge est de 14 m=46 ft. Il est situé à proximité de Cambridge (Royaume-Uni). La météo générale à 5 jours est disponible pour Trumpington situé à 5.6 km.

METAR de l'aéroport Cambridge - EGSC

EGSC 061750Z 27015KT 9000 -SHRA FEW003 SCT024 10/08 Q1001 RESHRA

Décodage du METAR de l'aéroport Cambridge (GB)

METAR émis par EGSC le vendredi 6 décembre 2019 à 17:50 heure TU. Attention ce METAR est obsolète car il a été émis il y a 13 heure et 27 minutes.

La visibilité est de 9 km=5.6 sm.

La température est de 10°C=50 °F et le point rosée est de 8°C=46 °F . Ce qui correspond à 87% d'humidité relative.

Le QNH est de 1001 hPa=29.56 inHg

Vent de 15 kt=28 km/h, orienté à 270°.

Nuages : Quelques nuages à 300 ft=90 mètres. Nuages épars à 2400 ft=730 mètres.

-SHRA

RESHRA

TAF de l'aéroport Cambridge - EGSC

EGSC 110803Z 1109/1118 27010KT 9999 SCT020 PROB30 TEMPO 1109/1112 6000 RA BKN012 PROB30 TEMPO 1109/1115 27015G25KT PROB30 TEMPO 1113/1115 7000 SHRA

EGSC 110803Z 1109/1118 27010KT 9999 nuages épars à 020 probabilité de 30% d'avoir temporairement 1109/1112 6000 pluie couverture nuageuse fragmentée à 012 probabilité de 30% d'avoir temporairement 1109/1115 27015G25KT probabilité de 30% d'avoir temporairement 1113/1115 7000 SHRA

Aéroport à proximité de Cambridge

Météo générale à 5 jours à Trumpington (5.6 km)EGSW Aéroport Newmarket Heath (12 km)EGSU Aéroport Duxford (13 km)EGSN Aéroport Bourn (15 km)EGMA Aéroport Fowlmere (16 km)EGMJ Aéroport Little Gransden (23 km)EGUY Aéroport Wyton (26 km)

VAC de l'aéroport Cambridge - EGSC

La carte d'approche à vue (VAC Visual Approah Chart) est fournie sans aucune garantie de son actualité. Le pilote est le seul responsable de la vérification de sa validité avant de l'utiliser opérationnellement pour préparer un vol ou l'utiliser lors de sa navigation.

VAC de EGSC

Vue aérienne de l'aéroport Cambridge

NOTAM de l'aéroport Cambridge

Les NOTAM sont fournis sans aucune garantie de leur actualité. Le pilote est le seul responsable de la vérification de sa validité avant de l'utiliser opérationnellement pour préparer un vol ou l'utiliser lors de sa navigation.

Pas de NOTAM

Sources des données